• Join FlightAware (Why Join?)
  • Login
  • US Flag 
07:01AM EST


 

Airport Tracker/Info


-or-


 

Live Flight TrackerFlight Track Log ✈ G52618 ✈ 23-Dec-2013 ✈ ZGWZ / WUZ - ZUGY / KWE

Flight Track Log - Related Links

Times and Time Zones

All times are in EST time to prevent confusion due to time zone crossing. See the G52618 flight status page for this flight to view local times or setup timezone preferences in your user account.

Time Position Orientation Groundspeed Altitude Reporting Facility
EST Latitude Longitude Course Direction KTS MPH feet Rate Location/Type
12:07AM 23.8997 110.6333 308° West  Level Estimated
12:08AM 23.9365 110.5819 308° West  Level Estimated
12:09AM 23.9733 110.5304 308° West  Level Estimated
12:10AM 24.0101 110.4790 308° West  Level Estimated
12:11AM 24.0469 110.4275 308° West  Level Estimated
12:12AM 24.0836 110.3759 308° West  Level Estimated
12:13AM 24.1203 110.3243 308° West  Level Estimated
12:14AM 24.1570 110.2728 308° West  Level Estimated
12:15AM 24.1937 110.2211 308° West  Level Estimated
12:16AM 24.2304 110.1695 308° West  Level Estimated
12:17AM 24.2671 110.1178 308° West  Level Estimated
12:18AM 24.3037 110.0661 308° West  Level Estimated
12:19AM 24.3403 110.0144 308° West  Level Estimated
12:20AM 24.3769 109.9626 308° West  Level Estimated
12:21AM 24.4135 109.9108 308° West  Level Estimated
12:22AM 24.4501 109.8589 308° West  Level Estimated
12:23AM 24.4866 109.8071 308° West  Level Estimated
12:24AM 24.5232 109.7552 308° West  Level Estimated
12:25AM 24.5597 109.7033 308° West  Level Estimated
12:26AM 24.5962 109.6513 308° West  Level Estimated
12:27AM 24.6327 109.5993 308° West  Level Estimated
12:28AM 24.6691 109.5473 308° West  Level Estimated
12:29AM 24.7055 109.4953 308° West  Level Estimated
12:30AM 24.7420 109.4432 308° West  Level Estimated
12:31AM 24.7784 109.3911 308° West  Level Estimated
12:32AM 24.8148 109.3390 308° West  Level Estimated
12:33AM 24.8511 109.2868 308° West  Level Estimated
12:34AM 24.8875 109.2346 308° West  Level Estimated
12:35AM 24.9238 109.1824 307° West  Level Estimated
12:36AM 24.9601 109.1301 307° West  Level Estimated
12:37AM 24.9964 109.0778 307° West  Level Estimated
12:38AM 25.0327 109.0255 307° West  Level Estimated
12:39AM 25.0690 108.9731 307° West  Level Estimated
12:40AM 25.1052 108.9208 307° West  Level Estimated
12:41AM 25.1414 108.8683 307° West  Level Estimated
12:42AM 25.1777 108.8159 307° West  Level Estimated
12:43AM 25.2138 108.7634 307° West  Level Estimated
12:44AM 25.2500 108.7109 307° West  Level Estimated
12:45AM 25.2862 108.6584 307° West  Level Estimated
12:46AM 25.3223 108.6058 307° West  Level Estimated
12:47AM 25.3584 108.5532 307° West  Level Estimated
12:48AM 25.3945 108.5006 307° West  Level Estimated
12:49AM 25.4306 108.4479 307° West  Level Estimated
12:50AM 25.4666 108.3952 307° West  Level Estimated
12:51AM 25.5027 108.3425 307° West  Level Estimated
12:52AM 25.5387 108.2897 307° West  Level Estimated
12:53AM 25.5747 108.2369 307° West  Level Estimated
12:54AM 25.6107 108.1841 307° West  Level Estimated
12:55AM 25.6466 108.1312 307° West  Level Estimated
12:56AM 25.6826 108.0783 307° West  Level Estimated
12:57AM 25.7185 108.0254 307° West  Level Estimated
12:58AM 25.7544 107.9725 307° West  Level Estimated
12:59AM 25.7903 107.9195 307° West  Level Estimated
01:00AM 25.8262 107.8665 307° West  Level Estimated
01:01AM 25.8620 107.8134 307° West  Level Estimated
01:02AM 25.8978 107.7604 307° West  Level Estimated
01:03AM 25.9336 107.7073 307° West  Level Estimated
01:04AM 25.9694 107.6541 307° West  Level Estimated
01:05AM 26.0052 107.6009 307° West  Level Estimated
01:06AM 26.0410 107.5477 307° West  Level Estimated
01:07AM 26.0767 107.4945 307° West  Level Estimated
01:08AM 26.1124 107.4412 307° West  Level Estimated
01:09AM 26.1481 107.3879 307° West  Level Estimated
01:10AM 26.1838 107.3346 307° West  Level Estimated
01:11AM 26.2194 107.2812 307° West  Level Estimated
01:12AM 26.2550 107.2278 307° West  Level Estimated
01:13AM 26.2906 107.1743 307° West  Level Estimated
01:14AM 26.3262 107.1209 307° West  Level Estimated